createdAt,value
2022-11-15T00:02:33.207Z,19.98
2022-11-15T00:08:06.163Z,18.90
2022-11-15T00:13:28.155Z,19.50
2022-11-15T00:18:51.111Z,19.77
2022-11-15T00:24:13.004Z,19.95
2022-11-15T00:29:35.300Z,21.42
2022-11-15T00:34:57.452Z,19.85
2022-11-15T00:40:19.294Z,21.77
2022-11-15T00:45:54.656Z,20.13
2022-11-15T00:51:16.336Z,18.60
2022-11-15T00:56:38.386Z,17.20
2022-11-15T01:01:59.977Z,16.70
2022-11-15T01:07:22.524Z,16.85
2022-11-15T01:12:44.513Z,16.75
2022-11-15T01:18:06.275Z,16.00
2022-11-15T01:23:34.363Z,14.65
2022-11-15T01:28:56.535Z,17.00
2022-11-15T01:34:18.305Z,16.93
2022-11-15T01:39:40.099Z,17.17
2022-11-15T01:45:02.383Z,16.33
2022-11-15T01:50:32.103Z,19.02
2022-11-15T01:55:55.172Z,17.98
2022-11-15T02:01:17.137Z,20.42
2022-11-15T02:06:40.925Z,20.48
2022-11-15T02:12:02.509Z,20.63
2022-11-15T02:17:46.474Z,20.30
2022-11-15T02:23:30.525Z,21.13
2022-11-15T02:29:08.250Z,22.20
2022-11-15T02:34:55.590Z,20.10
2022-11-15T02:40:51.377Z,22.35
2022-11-15T02:46:42.671Z,21.27
2022-11-15T02:52:05.089Z,21.02
2022-11-15T02:57:52.784Z,21.67
2022-11-15T03:03:34.923Z,21.33
2022-11-15T03:09:15.930Z,20.65
2022-11-15T03:14:58.050Z,21.15
2022-11-15T03:20:20.733Z,20.97
2022-11-15T03:31:09.757Z,20.25
2022-11-15T03:36:34.724Z,19.90
2022-11-15T03:42:13.518Z,19.65
2022-11-15T03:47:44.512Z,19.42
2022-11-15T03:53:06.469Z,18.13
2022-11-15T03:58:28.614Z,19.33
2022-11-15T04:03:50.879Z,19.23
2022-11-15T04:14:53.026Z,19.92
2022-11-15T04:20:22.271Z,22.17
2022-11-15T04:25:45.056Z,20.45
2022-11-15T04:31:25.292Z,21.07
2022-11-15T04:37:05.552Z,20.60
2022-11-15T04:42:45.611Z,21.38
2022-11-15T04:48:19.502Z,21.40
2022-11-15T04:53:41.362Z,23.27
2022-11-15T04:59:03.470Z,21.73
2022-11-15T05:04:25.015Z,21.40
2022-11-15T05:09:47.422Z,21.37
2022-11-15T05:15:09.980Z,20.88
2022-11-15T05:20:32.006Z,21.38
2022-11-15T05:25:53.379Z,21.85
2022-11-15T05:31:17.021Z,21.23
2022-11-15T05:36:47.853Z,21.83
2022-11-15T05:42:13.036Z,22.27
2022-11-15T05:47:37.108Z,20.88
2022-11-15T05:53:04.683Z,22.52
2022-11-15T05:58:27.296Z,22.85
2022-11-15T06:03:49.068Z,22.55
2022-11-15T06:09:10.693Z,22.33
2022-11-15T06:14:32.803Z,22.92
2022-11-15T06:19:54.736Z,23.10
2022-11-15T06:25:16.762Z,22.20
2022-11-15T06:30:38.089Z,23.77
2022-11-15T06:36:14.511Z,23.65
2022-11-15T06:41:39.202Z,24.25
2022-11-15T06:47:01.566Z,24.63
2022-11-15T06:52:23.450Z,25.10
2022-11-15T06:57:52.844Z,24.33
2022-11-15T07:03:14.601Z,22.95
2022-11-15T07:08:36.828Z,22.90
2022-11-15T07:13:58.651Z,22.98
2022-11-15T07:19:20.421Z,20.97
2022-11-15T07:24:43.856Z,20.10
2022-11-15T07:30:07.101Z,16.25
2022-11-15T07:35:30.870Z,17.23
2022-11-15T07:40:58.880Z,15.95
2022-11-15T07:46:20.630Z,16.08
2022-11-15T07:51:42.435Z,14.37
2022-11-15T07:57:07.554Z,13.18
2022-11-15T08:02:32.607Z,13.77
2022-11-15T08:07:57.072Z,13.43
2022-11-15T08:13:19.678Z,14.70
2022-11-15T08:18:42.184Z,13.20
2022-11-15T08:29:30.519Z,13.20
2022-11-15T08:34:55.344Z,13.50
2022-11-15T08:40:17.654Z,12.88
2022-11-15T08:45:39.605Z,13.20
2022-11-15T08:51:01.656Z,14.73
2022-11-15T08:56:23.651Z,15.93
2022-11-15T09:01:45.191Z,13.85
2022-11-15T09:07:06.958Z,12.30
2022-11-15T09:12:28.758Z,14.48
2022-11-15T09:17:51.344Z,14.47
2022-11-15T09:23:13.769Z,13.60
2022-11-15T09:28:39.723Z,14.55
2022-11-15T09:34:04.036Z,13.88
2022-11-15T09:39:25.786Z,14.45
2022-11-15T09:44:47.611Z,13.90
2022-11-15T09:50:20.639Z,13.27
2022-11-15T09:55:40.017Z,15.65
2022-11-15T10:00:48.573Z,13.80
2022-11-15T10:05:55.321Z,14.18
2022-11-15T10:11:35.521Z,13.60
2022-11-15T10:16:36.781Z,14.32
2022-11-15T10:22:12.031Z,14.02
2022-11-15T10:27:18.214Z,12.65
2022-11-15T10:32:22.636Z,11.07
2022-11-15T10:37:30.684Z,10.13
2022-11-15T10:42:34.500Z,9.88
2022-11-15T10:47:39.777Z,10.05
2022-11-15T10:52:47.939Z,9.27
2022-11-15T10:57:57.469Z,9.10
2022-11-15T11:03:04.226Z,9.43
2022-11-15T11:08:24.166Z,8.88
2022-11-15T11:13:32.034Z,8.25
2022-11-15T11:18:45.411Z,8.65
2022-11-15T11:24:12.340Z,9.70
2022-11-15T11:29:32.702Z,8.70
2022-11-15T11:35:00.498Z,8.93
2022-11-15T11:40:18.248Z,8.25
2022-11-15T11:46:02.970Z,8.88
2022-11-15T11:51:29.357Z,9.80
2022-11-15T11:56:39.686Z,8.10
2022-11-15T12:01:45.021Z,8.63
2022-11-15T12:07:00.367Z,9.10
2022-11-15T12:12:16.389Z,8.95
2022-11-15T12:17:27.382Z,8.88
2022-11-15T12:22:38.006Z,8.95
2022-11-15T12:27:53.644Z,7.95
2022-11-15T12:33:02.551Z,8.35
2022-11-15T12:38:06.401Z,8.98
2022-11-15T12:43:38.170Z,9.73
2022-11-15T12:48:41.498Z,10.07
2022-11-15T12:53:44.916Z,9.93
2022-11-15T12:59:00.320Z,9.55
2022-11-15T13:04:21.821Z,9.35
2022-11-15T13:09:31.119Z,9.27
2022-11-15T13:14:39.188Z,8.88
2022-11-15T13:19:42.848Z,9.32
2022-11-15T13:24:46.355Z,10.32
2022-11-15T13:29:49.749Z,9.05
2022-11-15T13:34:53.435Z,10.27
2022-11-15T13:40:17.161Z,10.25
2022-11-15T13:45:21.231Z,10.70
2022-11-15T13:50:31.129Z,10.00
2022-11-15T13:55:35.032Z,10.57
2022-11-15T14:00:44.132Z,10.02
2022-11-15T14:06:13.451Z,9.00
2022-11-15T14:11:19.629Z,9.98
2022-11-15T14:16:41.379Z,10.95
2022-11-15T14:22:21.998Z,10.68
2022-11-15T14:27:29.750Z,11.80
2022-11-15T14:32:50.565Z,10.57
2022-11-15T14:37:53.639Z,11.13
2022-11-15T14:42:56.681Z,11.77
2022-11-15T14:47:59.845Z,11.52
2022-11-15T14:53:03.763Z,11.57
2022-11-15T14:58:08.231Z,11.38
2022-11-15T15:03:11.978Z,12.10
2022-11-15T15:08:15.299Z,11.38
2022-11-15T15:13:21.284Z,12.05
2022-11-15T15:18:24.605Z,10.77
2022-11-15T15:23:28.500Z,12.07
2022-11-15T15:28:34.893Z,10.68
2022-11-15T15:33:39.210Z,11.13
2022-11-15T15:38:42.622Z,11.55
2022-11-15T15:43:46.404Z,11.75
2022-11-15T15:48:49.809Z,12.02
2022-11-15T15:53:53.178Z,12.25
2022-11-15T15:58:56.449Z,11.90
2022-11-15T16:03:59.842Z,12.00
2022-11-15T16:09:20.215Z,11.48
2022-11-15T16:14:24.518Z,11.80
2022-11-15T16:19:27.908Z,12.23
2022-11-15T16:24:31.202Z,11.77
2022-11-15T16:29:34.875Z,12.40
2022-11-15T16:34:41.889Z,12.30
2022-11-15T16:39:47.347Z,10.95
2022-11-15T16:44:50.952Z,11.45
2022-11-15T16:49:54.429Z,11.05
2022-11-15T16:54:58.087Z,12.27
2022-11-15T17:00:02.105Z,11.73
2022-11-15T17:05:11.862Z,11.48
2022-11-15T17:10:17.102Z,11.23
2022-11-15T17:15:20.446Z,10.73
2022-11-15T17:20:25.499Z,11.90
2022-11-15T17:25:28.794Z,10.85
2022-11-15T17:30:32.112Z,11.50
2022-11-15T17:35:35.757Z,11.13
2022-11-15T17:40:39.154Z,10.48
2022-11-15T17:45:42.839Z,10.60
2022-11-15T17:50:59.779Z,10.45
2022-11-15T17:56:04.871Z,10.93
2022-11-15T18:01:19.413Z,10.52
2022-11-15T18:06:24.800Z,11.05
2022-11-15T18:11:30.677Z,11.50
2022-11-15T18:16:41.023Z,10.73
2022-11-15T18:21:45.916Z,11.60
2022-11-15T18:26:49.287Z,10.25
2022-11-15T18:31:53.671Z,11.30
2022-11-15T18:36:56.904Z,10.77
2022-11-15T18:42:00.583Z,10.68
2022-11-15T18:47:04.180Z,9.98
2022-11-15T18:52:07.906Z,9.80
2022-11-15T18:57:11.317Z,10.00
2022-11-15T19:02:14.861Z,10.07
2022-11-15T19:07:18.660Z,8.95
2022-11-15T19:12:23.822Z,9.25
2022-11-15T19:17:30.554Z,10.02
2022-11-15T19:22:36.474Z,9.98
2022-11-15T19:27:39.718Z,9.38
2022-11-15T19:32:42.982Z,9.13
2022-11-15T19:37:46.256Z,10.73
2022-11-15T19:42:49.699Z,9.70
2022-11-15T19:52:56.847Z,10.60
2022-11-15T19:58:00.394Z,10.10
2022-11-15T20:03:05.064Z,9.82
2022-11-15T20:08:08.317Z,8.77
2022-11-15T20:13:12.395Z,9.25
2022-11-15T20:18:17.022Z,9.15
2022-11-15T20:23:20.330Z,9.10
2022-11-15T20:33:28.660Z,8.18
2022-11-15T20:38:33.110Z,9.40
2022-11-15T20:43:36.406Z,8.93
2022-11-15T20:53:44.420Z,9.07
2022-11-15T20:58:48.404Z,9.05
2022-11-15T21:03:53.463Z,8.82
2022-11-15T21:09:05.994Z,9.10
2022-11-15T21:14:09.874Z,8.93
2022-11-15T21:19:15.634Z,8.68
2022-11-15T21:24:25.864Z,9.02
2022-11-15T21:29:31.247Z,8.95
2022-11-15T21:34:35.864Z,8.75
2022-11-15T21:39:39.679Z,8.43
2022-11-15T21:44:42.931Z,8.77
2022-11-15T21:49:46.516Z,8.57
2022-11-15T21:54:49.710Z,9.13
2022-11-15T21:59:53.089Z,9.55
2022-11-15T22:04:56.476Z,8.40
2022-11-15T22:09:59.965Z,8.43
2022-11-15T22:15:03.918Z,8.20
2022-11-15T22:20:37.290Z,8.45
2022-11-15T22:25:31.271Z,9.23
2022-11-15T22:30:34.744Z,8.82
2022-11-15T22:35:39.344Z,8.30
2022-11-15T22:40:43.990Z,8.63
2022-11-15T22:45:52.557Z,7.75
2022-11-15T22:50:56.383Z,7.20
2022-11-15T22:56:05.291Z,7.90
2022-11-15T23:01:20.624Z,7.80
2022-11-15T23:06:24.606Z,7.80
2022-11-15T23:11:27.853Z,7.85
2022-11-15T23:21:42.987Z,8.15
2022-11-15T23:26:48.468Z,7.33
2022-11-15T23:32:01.231Z,6.60
2022-11-15T23:37:06.309Z,6.80
2022-11-15T23:42:09.781Z,7.43
2022-11-15T23:47:13.068Z,7.85
2022-11-15T23:52:17.889Z,6.88
2022-11-15T23:57:21.322Z,6.90
